Time;durP1;ratioP1;P1;durP2;ratioP2;P2;SDS_P1;SDS_P2;PMS_P1;PMS_P2;Temp;Humidity;BMP_temperature;BMP_pressure;BME280_temperature;BME280_humidity;BME280_pressure;Samples;Min_cycle;Max_cycle;Signal;HPM_P1;HPM_P2
2023/09/26 00:00:56;;;;;;;15.45;14.10;;;14.80;99.90;;;;;;4947991;29;19924;-78
2023/09/26 00:03:21;;;;;;;15.32;13.98;;;14.80;99.90;;;;;;4951923;28;20042;-79
2023/09/26 00:05:48;;;;;;;14.48;13.10;;;14.80;99.90;;;;;;4958342;28;20054;-78
2023/09/26 00:08:14;;;;;;;14.57;13.18;;;14.80;99.90;;;;;;4949059;28;20049;-78
2023/09/26 00:10:39;;;;;;;14.93;13.73;;;14.80;99.90;;;;;;4969749;28;20131;-78
2023/09/26 00:13:05;;;;;;;14.68;13.35;;;14.80;99.90;;;;;;4955848;28;20180;-78
2023/09/26 00:15:31;;;;;;;14.63;13.32;;;14.80;99.90;;;;;;4940971;28;20038;-78
2023/09/26 00:17:57;;;;;;;14.98;13.75;;;14.80;99.90;;;;;;4942167;28;20031;-78
2023/09/26 00:20:28;;;;;;;14.15;12.95;;;14.80;99.90;;;;;;4942182;28;20038;-79
2023/09/26 00:22:54;;;;;;;15.45;14.15;;;14.70;99.90;;;;;;4954464;28;20046;-78
2023/09/26 00:25:20;;;;;;;14.52;13.35;;;14.70;99.90;;;;;;4955656;28;20042;-79
2023/09/26 00:27:46;;;;;;;13.95;12.75;;;14.70;99.90;;;;;;4958067;28;20046;-78
2023/09/26 00:30:12;;;;;;;14.10;13.00;;;14.70;99.90;;;;;;4941958;28;20600;-77
2023/09/26 00:32:38;;;;;;;13.98;12.85;;;14.70;99.90;;;;;;4936064;28;20433;-77
2023/09/26 00:35:13;;;;;;;13.80;12.73;;;14.60;99.90;;;;;;4956536;28;20031;-77
2023/09/26 00:37:40;;;;;;;15.95;14.63;;;14.60;99.90;;;;;;4942195;28;20459;-77
2023/09/26 00:40:18;;;;;;;15.00;13.80;;;14.60;99.90;;;;;;4968869;28;20034;-77
2023/09/26 00:42:44;;;;;;;15.27;13.98;;;14.50;99.90;;;;;;4945422;28;20035;-78
2023/09/26 00:45:11;;;;;;;16.90;15.48;;;14.50;99.90;;;;;;4957406;28;20058;-78
2023/09/26 00:47:39;;;;;;;16.17;14.75;;;14.50;99.90;;;;;;4957616;28;20053;-78
2023/09/26 00:50:15;;;;;;;17.45;15.98;;;14.50;99.90;;;;;;4941207;28;20046;-78
2023/09/26 00:52:46;;;;;;;16.50;15.18;;;14.50;99.90;;;;;;4950432;28;20066;-78
2023/09/26 00:55:15;;;;;;;17.52;16.02;;;14.40;99.90;;;;;;4951968;28;20441;-78
2023/09/26 00:57:40;;;;;;;16.25;14.95;;;14.40;99.90;;;;;;4922501;29;20042;-77
2023/09/26 01:00:07;;;;;;;18.30;16.80;;;14.30;99.90;;;;;;4938197;29;20047;-78
2023/09/26 01:02:33;;;;;;;18.20;16.70;;;14.30;99.90;;;;;;4940509;28;20082;-78
2023/09/26 01:04:59;;;;;;;20.52;18.92;;;14.30;99.90;;;;;;4951346;28;20078;-78
2023/09/26 01:07:26;;;;;;;19.63;17.98;;;14.20;99.90;;;;;;4957229;28;20497;-78
2023/09/26 01:09:52;;;;;;;18.40;17.00;;;14.20;99.90;;;;;;4954489;28;20047;-78
2023/09/26 01:12:19;;;;;;;18.88;17.38;;;14.20;99.90;;;;;;4956039;28;20576;-78
2023/09/26 01:14:45;;;;;;;20.60;18.85;;;14.20;99.90;;;;;;4956767;28;20034;-78
2023/09/26 01:17:11;;;;;;;21.95;20.10;;;14.10;99.90;;;;;;4957190;28;20062;-78
2023/09/26 01:19:36;;;;;;;22.17;20.48;;;14.10;99.90;;;;;;4941190;28;20046;-78
2023/09/26 01:22:02;;;;;;;20.45;18.85;;;14.00;99.90;;;;;;4953674;28;20039;-78
2023/09/26 01:24:28;;;;;;;21.50;19.90;;;14.00;99.90;;;;;;4956617;28;20047;-78
2023/09/26 01:26:55;;;;;;;25.55;23.63;;;13.90;99.90;;;;;;4964618;28;20504;-78
2023/09/26 01:29:20;;;;;;;21.52;19.92;;;13.90;99.90;;;;;;4943131;28;20053;-78
2023/09/26 01:31:46;;;;;;;21.88;20.08;;;13.80;99.90;;;;;;4939034;28;20408;-78
2023/09/26 01:34:12;;;;;;;27.08;24.98;;;13.80;99.90;;;;;;4937665;28;20042;-78
2023/09/26 01:36:38;;;;;;;28.00;25.52;;;13.70;99.90;;;;;;4954976;28;20027;-78
2023/09/26 01:39:05;;;;;;;23.95;21.92;;;13.70;99.90;;;;;;4939917;28;20081;-78
2023/09/26 01:41:31;;;;;;;26.25;24.15;;;13.70;99.90;;;;;;4956651;28;20066;-78
2023/09/26 01:43:57;;;;;;;24.15;22.10;;;13.60;99.90;;;;;;4956608;28;20047;-78
2023/09/26 01:46:23;;;;;;;26.17;24.17;;;13.60;99.90;;;;;;4956595;28;20077;-78
2023/09/26 01:48:49;;;;;;;25.80;23.73;;;13.60;99.90;;;;;;4953861;28;20496;-78
2023/09/26 01:51:15;;;;;;;24.92;22.92;;;13.60;99.90;;;;;;4939868;28;20772;-78
2023/09/26 01:53:40;;;;;;;27.13;24.92;;;13.60;99.90;;;;;;4967852;28;20104;-78
2023/09/26 01:56:06;;;;;;;29.88;27.63;;;13.60;99.90;;;;;;4959431;28;20484;-77
2023/09/26 01:58:32;;;;;;;32.65;30.13;;;13.60;99.90;;;;;;4944023;28;20038;-78
2023/09/26 02:00:58;;;;;;;27.63;25.35;;;13.70;99.90;;;;;;4955879;28;20043;-78
2023/09/26 02:03:24;;;;;;;26.98;24.88;;;13.70;99.90;;;;;;4956401;28;20133;-78
2023/09/26 02:05:49;;;;;;;29.88;27.38;;;13.70;99.90;;;;;;4956191;28;20049;-78
2023/09/26 02:08:16;;;;;;;30.55;28.33;;;13.70;99.90;;;;;;4940300;28;20429;-78
2023/09/26 02:10:42;;;;;;;27.92;25.77;;;13.80;99.90;;;;;;4940163;28;20074;-77
2023/09/26 02:13:08;;;;;;;28.85;26.42;;;13.80;99.90;;;;;;4940323;28;20520;-78
2023/09/26 02:15:36;;;;;;;27.90;25.65;;;13.80;99.90;;;;;;4955858;28;20054;-78
2023/09/26 02:18:02;;;;;;;26.65;24.50;;;13.80;99.90;;;;;;4937106;28;20093;-78
2023/09/26 02:20:27;;;;;;;30.92;28.48;;;13.80;99.90;;;;;;4955787;28;20050;-78
2023/09/26 02:22:53;;;;;;;27.90;25.73;;;13.80;99.90;;;;;;4953787;28;20121;-78
2023/09/26 02:25:20;;;;;;;24.52;22.67;;;13.80;99.90;;;;;;4942121;28;20046;-78
2023/09/26 02:27:46;;;;;;;26.85;24.65;;;13.70;99.90;;;;;;4953680;28;20077;-78
2023/09/26 02:30:14;;;;;;;27.50;25.45;;;13.70;99.90;;;;;;4955022;28;20493;-78
2023/09/26 02:32:40;;;;;;;28.05;25.80;;;13.60;99.90;;;;;;4948262;28;20082;-78
2023/09/26 02:35:13;;;;;;;28.95;26.65;;;13.60;99.90;;;;;;4955633;28;20081;-78
2023/09/26 02:37:39;;;;;;;29.40;26.98;;;13.50;99.90;;;;;;4953125;28;20038;-78
2023/09/26 02:40:09;;;;;;;33.22;30.52;;;13.40;99.90;;;;;;4948665;28;20493;-78
2023/09/26 02:42:46;;;;;;;30.92;28.58;;;13.30;99.90;;;;;;4931446;28;20082;-78
2023/09/26 02:45:13;;;;;;;31.80;29.40;;;13.30;99.90;;;;;;4939412;28;20098;-78
2023/09/26 02:47:39;;;;;;;34.22;31.52;;;13.20;99.90;;;;;;4953121;28;20089;-78
2023/09/26 02:50:06;;;;;;;30.92;28.52;;;13.20;99.90;;;;;;4955409;28;20129;-78
2023/09/26 02:52:31;;;;;;;31.50;29.00;;;13.10;99.90;;;;;;4930868;28;20047;-77
2023/09/26 02:54:57;;;;;;;34.67;32.10;;;13.10;99.90;;;;;;4961191;28;20047;-78
2023/09/26 02:57:22;;;;;;;37.28;34.03;;;13.00;99.90;;;;;;4952622;28;20906;-78
2023/09/26 02:59:48;;;;;;;27.98;25.88;;;13.00;99.90;;;;;;4939777;28;20046;-78
2023/09/26 03:02:13;;;;;;;26.38;24.30;;;12.90;99.90;;;;;;4947968;28;20034;-78
2023/09/26 03:04:39;;;;;;;30.33;27.98;;;12.90;99.90;;;;;;4955404;28;20096;-78
2023/09/26 03:07:05;;;;;;;29.33;26.92;;;12.80;99.90;;;;;;4936770;28;20043;-78
2023/09/26 03:09:33;;;;;;;35.78;32.53;;;12.70;99.90;;;;;;4945695;28;20139;-78
2023/09/26 03:11:59;;;;;;;30.42;28.13;;;12.60;99.90;;;;;;4934820;29;20090;-78
2023/09/26 03:14:25;;;;;;;34.22;31.55;;;12.60;99.90;;;;;;4941528;28;20525;-78
2023/09/26 03:16:50;;;;;;;39.08;36.03;;;12.50;99.90;;;;;;4943028;28;20486;-78
2023/09/26 03:19:23;;;;;;;38.15;35.28;;;12.50;99.90;;;;;;4957727;28;20039;-78
2023/09/26 03:21:50;;;;;;;42.40;38.88;;;12.50;99.90;;;;;;4942477;28;20093;-78
2023/09/26 03:24:17;;;;;;;37.35;34.45;;;12.50;99.90;;;;;;4940092;28;20043;-78
2023/09/26 03:26:42;;;;;;;37.45;34.45;;;12.50;99.90;;;;;;4946966;28;20049;-78
2023/09/26 03:29:08;;;;;;;39.47;36.33;;;12.40;99.90;;;;;;4959129;28;20046;-78
2023/09/26 03:31:34;;;;;;;46.75;42.95;;;12.40;99.90;;;;;;4957514;28;20050;-78
2023/09/26 03:34:00;;;;;;;44.05;40.20;;;12.30;99.90;;;;;;4958807;28;20390;-78
2023/09/26 03:36:26;;;;;;;42.13;38.53;;;12.30;99.90;;;;;;4958623;28;20043;-78
2023/09/26 03:38:51;;;;;;;40.40;37.20;;;12.30;99.90;;;;;;4939935;28;20092;-78
2023/09/26 03:41:17;;;;;;;39.80;36.60;;;12.20;99.90;;;;;;4949799;28;20489;-78
2023/09/26 03:43:43;;;;;;;33.75;31.10;;;12.20;99.90;;;;;;4960666;23;20075;-84
2023/09/26 03:46:08;;;;;;;37.25;34.33;;;12.20;99.90;;;;;;4939580;29;20039;-84
2023/09/26 03:48:35;;;;;;;41.20;37.85;;;12.10;99.90;;;;;;4923317;29;20122;-84
2023/09/26 03:51:12;;;;;;;40.83;37.63;;;12.10;99.90;;;;;;4925520;29;20040;-84
2023/09/26 03:53:39;;;;;;;38.15;35.17;;;12.00;99.90;;;;;;4901625;29;20054;-84
2023/09/26 03:56:05;;;;;;;41.58;38.38;;;11.90;99.90;;;;;;4899614;29;20442;-84
2023/09/26 03:58:31;;;;;;;41.53;38.17;;;11.90;99.90;;;;;;4890285;29;20076;-84
2023/09/26 04:01:10;;;;;;;41.17;37.88;;;11.90;99.90;;;;;;4891237;29;20048;-84
2023/09/26 04:03:37;;;;;;;45.65;42.30;;;11.90;99.90;;;;;;4914416;29;20044;-84
2023/09/26 04:06:02;;;;;;;43.42;39.67;;;11.90;99.90;;;;;;4900176;29;20044;-84
2023/09/26 04:08:28;;;;;;;41.78;38.30;;;11.90;99.90;;;;;;4901862;29;20544;-84
2023/09/26 04:10:54;;;;;;;40.92;37.78;;;11.90;99.90;;;;;;4908643;29;20050;-84
2023/09/26 04:13:19;;;;;;;44.97;41.22;;;11.80;99.90;;;;;;4893832;29;20047;-84
2023/09/26 04:15:45;;;;;;;44.10;40.30;;;11.80;99.90;;;;;;4892713;29;20067;-84
2023/09/26 04:18:10;;;;;;;44.40;40.83;;;11.80;99.90;;;;;;4902365;29;20073;-84
2023/09/26 04:20:37;;;;;;;44.70;41.03;;;11.80;99.90;;;;;;4894549;29;20075;-84
2023/09/26 04:23:03;;;;;;;42.47;39.10;;;11.70;99.90;;;;;;4896626;29;20095;-84
2023/09/26 04:25:34;;;;;;;47.75;43.85;;;11.70;99.90;;;;;;4895826;29;20094;-84
2023/09/26 04:28:00;;;;;;;46.58;42.80;;;11.70;99.90;;;;;;4895474;29;20059;-84
2023/09/26 04:30:26;;;;;;;39.70;36.60;;;11.80;99.90;;;;;;4909837;29;20056;-84
2023/09/26 04:32:51;;;;;;;42.92;39.72;;;11.70;99.90;;;;;;4909449;29;20036;-83
2023/09/26 04:35:18;;;;;;;40.42;37.08;;;11.60;99.90;;;;;;4896189;29;20513;-83
2023/09/26 04:37:43;;;;;;;39.40;36.40;;;11.60;99.90;;;;;;4919575;29;20507;-84
2023/09/26 04:40:10;;;;;;;37.35;34.35;;;11.60;99.90;;;;;;4890503;29;20071;-84
2023/09/26 04:42:40;;;;;;;39.72;36.38;;;11.60;99.90;;;;;;4898242;29;20055;-83
2023/09/26 04:45:07;;;;;;;44.92;41.00;;;11.60;99.90;;;;;;4911816;29;20059;-83
2023/09/26 04:47:33;;;;;;;44.58;40.88;;;11.50;99.90;;;;;;4895019;29;20387;-83
2023/09/26 04:49:58;;;;;;;46.15;42.35;;;11.50;99.90;;;;;;4896184;29;20050;-84
2023/09/26 04:52:24;;;;;;;49.63;45.25;;;11.50;99.90;;;;;;4903664;29;20046;-84
2023/09/26 04:54:53;;;;;;;45.72;41.88;;;11.40;99.90;;;;;;4911706;29;20043;-84
2023/09/26 04:57:19;;;;;;;47.63;43.83;;;11.40;99.90;;;;;;4918126;29;20046;-83
2023/09/26 04:59:44;;;;;;;47.00;43.25;;;11.40;99.90;;;;;;4916013;29;20319;-83
2023/09/26 05:02:10;;;;;;;41.25;37.88;;;11.40;99.90;;;;;;4904059;29;20449;-84
2023/09/26 05:04:36;;;;;;;51.38;46.78;;;11.30;99.90;;;;;;4914732;29;20154;-84
2023/09/26 05:07:02;;;;;;;48.05;43.85;;;11.30;99.90;;;;;;4908421;29;20098;-84
2023/09/26 05:09:27;;;;;;;45.10;41.58;;;11.30;99.90;;;;;;4900339;29;20107;-83
2023/09/26 05:11:53;;;;;;;48.92;44.75;;;11.30;99.90;;;;;;4894840;29;20036;-83
2023/09/26 05:14:19;;;;;;;44.95;41.45;;;11.30;99.90;;;;;;4895304;29;20394;-84
2023/09/26 05:16:44;;;;;;;46.08;42.28;;;11.30;99.90;;;;;;4911049;29;20032;-83
2023/09/26 05:19:10;;;;;;;48.17;44.35;;;11.30;99.90;;;;;;4918970;29;20095;-84
2023/09/26 05:21:35;;;;;;;45.45;41.67;;;11.30;99.90;;;;;;4902328;29;20043;-84
2023/09/26 05:24:01;;;;;;;49.30;45.10;;;11.30;99.90;;;;;;4894458;29;20126;-83
2023/09/26 05:26:27;;;;;;;48.03;44.25;;;11.30;99.90;;;;;;4917802;29;20039;-83
2023/09/26 05:28:52;;;;;;;42.95;39.75;;;11.30;99.90;;;;;;4906149;29;20043;-84
2023/09/26 05:31:18;;;;;;;46.85;43.08;;;11.30;99.90;;;;;;4905162;29;20071;-84
2023/09/26 05:33:43;;;;;;;51.78;47.45;;;11.30;99.90;;;;;;4911447;29;20032;-83
2023/09/26 05:36:09;;;;;;;39.85;36.70;;;11.30;99.90;;;;;;4904612;29;20044;-83
2023/09/26 05:38:35;;;;;;;43.95;40.40;;;11.40;99.90;;;;;;4902106;29;20070;-83
2023/09/26 05:41:05;;;;;;;45.17;41.38;;;11.40;99.90;;;;;;4894598;29;20062;-84
2023/09/26 05:43:32;;;;;;;46.63;42.83;;;11.40;99.90;;;;;;4910787;29;20490;-84
2023/09/26 05:45:57;;;;;;;42.97;39.28;;;11.40;99.90;;;;;;4896829;29;20071;-83
2023/09/26 05:48:23;;;;;;;44.95;41.20;;;11.40;99.90;;;;;;4900985;29;20498;-84
2023/09/26 05:50:48;;;;;;;53.95;49.22;;;11.40;99.90;;;;;;4902231;29;20129;-84
2023/09/26 05:53:14;;;;;;;46.65;43.15;;;11.40;99.90;;;;;;4910117;29;20035;-84
2023/09/26 05:55:40;;;;;;;45.20;41.45;;;11.50;99.90;;;;;;4917093;29;20071;-84
2023/09/26 05:58:06;;;;;;;52.00;47.50;;;11.50;99.90;;;;;;4903690;29;20127;-84
2023/09/26 06:00:31;;;;;;;43.03;39.50;;;11.50;99.90;;;;;;4902277;29;20044;-84
2023/09/26 06:02:57;;;;;;;44.45;40.53;;;11.60;99.90;;;;;;4909057;29;20524;-83
2023/09/26 06:05:22;;;;;;;45.67;42.08;;;11.60;99.90;;;;;;4899301;29;20042;-84
2023/09/26 06:07:51;;;;;;;43.15;39.53;;;11.70;99.90;;;;;;4911878;29;20040;-84
2023/09/26 06:10:16;;;;;;;39.42;36.00;;;11.60;99.90;;;;;;4909762;29;20044;-84
2023/09/26 06:12:42;;;;;;;41.13;37.92;;;11.70;99.90;;;;;;4894101;29;20037;-84
2023/09/26 06:15:11;;;;;;;41.67;37.78;;;11.70;99.90;;;;;;4896790;29;20040;-84
2023/09/26 06:17:39;;;;;;;43.58;39.55;;;11.70;99.90;;;;;;4911319;29;20032;-84
2023/09/26 06:20:08;;;;;;;39.55;36.08;;;11.80;99.90;;;;;;4909084;29;20406;-84
2023/09/26 06:22:34;;;;;;;40.95;37.65;;;11.80;99.90;;;;;;4900101;29;20060;-84
2023/09/26 06:25:02;;;;;;;38.40;35.20;;;11.80;99.90;;;;;;4907869;29;20040;-84
2023/09/26 06:27:27;;;;;;;43.47;39.65;;;11.90;99.90;;;;;;4917040;29;20047;-84
2023/09/26 06:29:53;;;;;;;41.28;37.95;;;11.90;99.90;;;;;;4914246;29;20062;-84
2023/09/26 06:32:18;;;;;;;41.63;38.03;;;12.00;99.90;;;;;;4915271;29;20044;-83
2023/09/26 06:34:55;;;;;;;41.65;37.97;;;12.00;99.90;;;;;;4915983;29;20036;-83
2023/09/26 06:37:41;;;;;;;36.25;33.25;;;12.00;99.90;;;;;;4912710;29;20046;-85
2023/09/26 06:40:07;;;;;;;38.92;35.72;;;12.10;99.90;;;;;;4912124;29;20035;-86
2023/09/26 06:42:33;;;;;;;38.28;34.92;;;12.00;99.90;;;;;;4915027;29;20040;-86
2023/09/26 06:44:59;;;;;;;38.53;35.60;;;12.10;99.90;;;;;;4917052;29;20074;-86
2023/09/26 06:47:26;;;;;;;36.28;33.47;;;12.10;99.90;;;;;;4909483;29;20039;-86
2023/09/26 06:49:53;;;;;;;37.55;34.17;;;12.10;99.90;;;;;;4917155;29;20067;-86
2023/09/26 06:52:20;;;;;;;39.47;36.17;;;12.20;99.90;;;;;;4893613;29;20036;-84
2023/09/26 06:54:45;;;;;;;39.45;36.10;;;12.20;99.90;;;;;;4897080;29;20411;-85
2023/09/26 06:57:15;;;;;;;31.50;29.05;;;12.30;99.90;;;;;;4902394;29;20036;-85
2023/09/26 07:00:16;;;;;;;35.45;32.55;;;12.30;99.90;;;;;;4899038;29;20044;-83
2023/09/26 07:02:43;;;;;;;39.00;35.72;;;12.40;99.90;;;;;;4909113;29;20107;-83
2023/09/26 07:05:09;;;;;;;30.55;28.15;;;12.50;99.90;;;;;;4898450;29;20040;-84
2023/09/26 07:07:55;;;;;;;32.08;29.48;;;12.50;99.90;;;;;;4916775;29;20310;-83
2023/09/26 07:11:01;;;;;;;32.17;29.33;;;12.60;99.90;;;;;;4914362;29;20083;-83
2023/09/26 07:16:53;;;;;;;29.63;27.05;;;12.90;99.90;;;;;;4895584;29;20048;-83
2023/09/26 07:19:48;;;;;;;37.05;33.97;;;12.90;99.90;;;;;;4883942;29;20048;-84
2023/09/26 07:22:37;;;;;;;43.17;39.80;;;13.00;99.90;;;;;;4918084;29;20109;-84
2023/09/26 07:25:04;;;;;;;30.73;28.27;;;13.10;99.90;;;;;;4900820;29;20098;-84
2023/09/26 07:27:30;;;;;;;29.73;27.30;;;13.20;99.90;;;;;;4894249;29;20052;-83
2023/09/26 07:30:18;;;;;;;23.42;21.60;;;13.30;99.90;;;;;;4917563;29;20095;-84
2023/09/26 07:32:46;;;;;;;30.05;27.67;;;13.40;99.90;;;;;;4902169;29;20091;-84
2023/09/26 07:35:15;;;;;;;27.02;24.50;;;13.50;99.90;;;;;;4916801;29;20462;-83
2023/09/26 07:37:59;;;;;;;28.70;26.30;;;13.60;99.90;;;;;;4913006;29;20130;-83
2023/09/26 07:41:00;;;;;;;25.52;23.42;;;13.70;99.90;;;;;;4910481;29;20790;-84
2023/09/26 07:44:17;;;;;;;29.63;27.10;;;13.90;99.90;;;;;;4819584;29;20080;-83
2023/09/26 07:46:58;;;;;;;21.35;19.35;;;14.10;99.90;;;;;;4897601;29;20052;-84
2023/09/26 07:49:24;;;;;;;21.38;19.67;;;14.30;99.90;;;;;;4911736;29;20131;-84
2023/09/26 07:51:50;;;;;;;21.63;19.83;;;14.40;99.90;;;;;;4899580;29;20123;-84
2023/09/26 07:54:50;;;;;;;23.42;21.48;;;14.50;99.90;;;;;;4913212;29;20410;-84
2023/09/26 07:57:22;;;;;;;19.75;18.05;;;14.70;99.90;;;;;;4908063;29;20052;-84
2023/09/26 07:59:47;;;;;;;23.92;21.83;;;14.70;99.90;;;;;;4911936;29;20498;-83
2023/09/26 08:03:08;;;;;;;20.40;18.58;;;14.80;99.90;;;;;;4906459;29;20035;-83
2023/09/26 08:07:15;;;;;;;19.92;18.23;;;14.90;99.90;;;;;;4915356;29;20051;-83
2023/09/26 08:10:00;;;;;;;24.00;21.70;;;15.10;99.90;;;;;;4868396;29;20041;-83
2023/09/26 08:13:14;;;;;;;17.58;16.00;;;15.20;99.90;;;;;;4857864;29;20621;-83
2023/09/26 08:16:47;;;;;;;19.48;17.77;;;15.40;99.90;;;;;;4862160;29;20511;-83
2023/09/26 08:33:31;;;;;;;17.67;16.08;;;15.90;99.90;;;;;;4920209;29;20080;-84
2023/09/26 08:36:46;;;;;;;16.77;15.30;;;16.10;99.90;;;;;;4902673;29;20127;-84
2023/09/26 08:39:17;;;;;;;17.75;16.15;;;16.30;99.90;;;;;;4893142;29;20064;-83
2023/09/26 08:41:53;;;;;;;16.30;14.65;;;16.40;99.90;;;;;;4901488;29;20051;-84
2023/09/26 08:44:19;;;;;;;15.90;14.40;;;16.50;99.90;;;;;;4912771;29;20127;-84
2023/09/26 08:46:45;;;;;;;14.98;13.68;;;16.60;99.90;;;;;;4916586;29;20131;-85
2023/09/26 08:49:11;;;;;;;16.85;15.35;;;16.70;99.90;;;;;;4911360;29;20058;-85
2023/09/26 08:51:37;;;;;;;17.20;15.52;;;16.80;99.90;;;;;;4918300;29;20123;-85
2023/09/26 08:54:03;;;;;;;17.08;15.43;;;16.70;99.90;;;;;;4918046;29;20070;-85
2023/09/26 08:56:31;;;;;;;16.52;14.93;;;16.80;99.90;;;;;;4894563;29;20363;-84
2023/09/26 08:58:58;;;;;;;15.93;14.52;;;16.90;99.90;;;;;;4901048;29;20040;-84
2023/09/26 09:01:24;;;;;;;16.05;14.45;;;16.90;99.90;;;;;;4886341;29;20055;-84
2023/09/26 09:03:50;;;;;;;15.18;13.68;;;17.00;99.90;;;;;;4935224;29;20051;-85
2023/09/26 09:06:15;;;;;;;14.88;13.38;;;17.10;99.90;;;;;;4919308;29;20414;-85
2023/09/26 09:08:41;;;;;;;15.80;14.30;;;17.30;99.90;;;;;;4899426;29;20087;-85
2023/09/26 09:11:06;;;;;;;14.40;13.00;;;17.40;99.90;;;;;;4899308;29;20568;-84
2023/09/26 09:13:39;;;;;;;15.55;14.07;;;17.50;99.90;;;;;;4903914;29;20044;-85
2023/09/26 09:16:12;;;;;;;15.27;13.68;;;17.70;99.90;;;;;;4917273;29;20050;-84
2023/09/26 09:18:41;;;;;;;14.75;13.13;;;17.90;99.90;;;;;;4900418;29;20047;-84
2023/09/26 09:21:24;;;;;;;14.82;13.30;;;18.00;99.90;;;;;;4900575;29;20067;-84
2023/09/26 09:23:51;;;;;;;14.32;12.93;;;18.10;99.90;;;;;;4900521;29;20056;-84
2023/09/26 09:26:17;;;;;;;13.32;11.93;;;18.30;99.90;;;;;;4909343;29;20051;-84
2023/09/26 09:28:43;;;;;;;14.93;11.90;;;18.20;99.90;;;;;;4907648;29;20124;-85
2023/09/26 09:31:08;;;;;;;14.63;11.05;;;18.40;99.90;;;;;;4911779;29;20180;-85
2023/09/26 09:33:35;;;;;;;12.00;10.77;;;18.50;99.90;;;;;;4900396;29;20048;-85
2023/09/26 09:36:01;;;;;;;15.18;12.90;;;18.60;99.90;;;;;;4903321;29;20055;-84
2023/09/26 09:38:31;;;;;;;12.48;10.80;;;18.80;99.90;;;;;;4916356;29;20040;-85
2023/09/26 09:40:57;;;;;;;12.68;11.20;;;19.00;99.90;;;;;;4915277;29;20044;-84
2023/09/26 09:53:55;;;;;;;12.05;10.73;;;19.30;99.90;;;;;;5130649;23;20051;-81
2023/09/26 09:56:54;;;;;;;12.10;10.57;;;19.30;99.90;;;;;;4953115;29;20051;-82
2023/09/26 09:59:54;;;;;;;11.48;10.38;;;19.30;99.90;;;;;;4920766;29;20093;-82
2023/09/26 10:06:24;;;;;;;12.98;9.57;;;19.20;99.90;;;;;;4911870;29;20378;-82
2023/09/26 10:09:34;;;;;;;10.95;9.85;;;19.30;99.90;;;;;;4810668;29;20095;-84
2023/09/26 11:32:17;;;;;;;12.05;10.85;;;20.70;99.90;;;;;;5921584;23;20101;-76
2023/09/26 11:34:44;;;;;;;12.45;11.15;;;20.70;99.90;;;;;;4955206;28;20047;-76
2023/09/26 11:37:10;;;;;;;13.10;10.85;;;20.80;99.90;;;;;;4942989;28;20047;-76
2023/09/26 11:39:36;;;;;;;12.52;11.30;;;20.90;99.90;;;;;;4958993;28;20053;-76
2023/09/26 11:42:05;;;;;;;11.82;10.68;;;20.90;99.90;;;;;;4959106;28;20173;-76
2023/09/26 11:44:31;;;;;;;11.77;10.57;;;21.00;99.90;;;;;;4958750;28;20070;-76
2023/09/26 11:57:18;;;;;;;11.63;10.55;;;21.50;99.90;;;;;;5246926;23;20047;-85
2023/09/26 11:59:44;;;;;;;10.77;9.75;;;21.60;99.90;;;;;;4931102;29;20057;-85
2023/09/26 12:02:10;;;;;;;11.88;10.60;;;21.70;99.90;;;;;;4947619;29;20047;-85
2023/09/26 12:04:36;;;;;;;11.38;10.38;;;21.70;99.90;;;;;;4958782;28;20043;-85
2023/09/26 12:07:03;;;;;;;11.93;10.82;;;21.70;99.90;;;;;;4970941;28;20393;-85
2023/09/26 12:09:29;;;;;;;12.07;10.90;;;21.50;99.90;;;;;;4977942;28;20188;-85
2023/09/26 12:11:55;;;;;;;11.20;10.20;;;21.60;99.90;;;;;;4961907;28;20575;-85
2023/09/26 12:14:21;;;;;;;12.55;11.30;;;21.70;99.90;;;;;;4955607;28;20083;-85
2023/09/26 12:16:50;;;;;;;12.02;10.85;;;21.70;99.90;;;;;;4969525;28;20070;-85
2023/09/26 12:19:20;;;;;;;11.70;10.50;;;22.00;99.90;;;;;;4956370;28;20035;-85
2023/09/26 12:21:47;;;;;;;11.98;10.63;;;22.10;99.90;;;;;;4969954;28;20041;-85
2023/09/26 12:24:13;;;;;;;11.43;10.32;;;22.30;99.90;;;;;;4961665;28;20042;-85
2023/09/26 12:26:41;;;;;;;11.10;10.00;;;22.50;99.90;;;;;;4977329;28;20125;-85
2023/09/26 12:29:07;;;;;;;11.68;10.48;;;22.90;99.90;;;;;;4936261;29;20054;-85
2023/09/26 12:31:33;;;;;;;11.43;10.35;;;23.30;99.90;;;;;;4967128;28;20089;-85
2023/09/26 12:34:00;;;;;;;11.02;10.10;;;23.60;99.90;;;;;;4972493;28;20042;-85
2023/09/26 12:36:26;;;;;;;10.80;9.73;;;23.90;99.90;;;;;;4961651;28;20382;-85
2023/09/26 12:38:51;;;;;;;10.18;9.18;;;24.30;99.90;;;;;;4960608;28;20053;-85
2023/09/26 12:41:18;;;;;;;10.48;9.48;;;24.20;99.90;;;;;;4930013;28;20038;-84
2023/09/26 12:43:43;;;;;;;10.73;9.73;;;23.80;99.90;;;;;;4947904;28;20042;-84
2023/09/26 12:46:09;;;;;;;12.40;10.25;;;23.50;99.90;;;;;;4964313;28;20109;-84
2023/09/26 12:48:34;;;;;;;10.48;9.43;;;23.10;99.90;;;;;;4952122;28;20035;-84
2023/09/26 12:51:00;;;;;;;10.38;9.45;;;22.80;99.90;;;;;;4937322;29;20577;-84
2023/09/26 12:53:26;;;;;;;10.05;9.15;;;22.60;99.90;;;;;;4933257;28;20405;-83
2023/09/26 12:55:53;;;;;;;9.82;8.82;;;22.50;99.90;;;;;;4947493;29;20047;-84
2023/09/26 12:58:19;;;;;;;10.18;9.20;;;23.00;99.90;;;;;;4956028;28;20554;-84
2023/09/26 13:00:45;;;;;;;10.48;9.15;;;23.30;99.90;;;;;;4941862;28;20138;-84
2023/09/26 13:03:10;;;;;;;9.75;8.82;;;23.30;99.90;;;;;;4957899;28;20047;-84
2023/09/26 13:05:37;;;;;;;10.10;9.10;;;23.30;99.90;;;;;;4957352;28;20046;-84
2023/09/26 13:08:04;;;;;;;10.73;9.73;;;23.20;99.90;;;;;;4964339;28;20043;-83
2023/09/26 13:10:31;;;;;;;10.20;9.20;;;23.00;99.90;;;;;;4939367;29;20042;-84
2023/09/26 13:12:57;;;;;;;11.18;10.18;;;22.70;99.90;;;;;;4938502;29;20050;-83
2023/09/26 13:15:22;;;;;;;12.98;10.13;;;22.50;99.90;;;;;;4922123;29;20047;-84
2023/09/26 13:17:48;;;;;;;10.82;9.02;;;22.30;99.90;;;;;;4958516;28;20031;-84
2023/09/26 13:20:13;;;;;;;9.93;8.88;;;22.20;99.90;;;;;;4957699;28;20128;-84
2023/09/26 13:22:39;;;;;;;10.68;9.68;;;22.30;99.90;;;;;;4977212;28;20520;-84
2023/09/26 13:25:08;;;;;;;10.50;9.50;;;22.30;99.90;;;;;;4960414;28;20045;-84
2023/09/26 13:27:34;;;;;;;10.43;9.13;;;22.40;99.90;;;;;;4953339;28;20042;-83
2023/09/26 13:30:00;;;;;;;11.00;9.88;;;22.50;99.90;;;;;;4955385;28;20048;-83
2023/09/26 13:32:26;;;;;;;10.95;9.85;;;22.50;99.90;;;;;;4976488;28;20468;-83
2023/09/26 13:34:51;;;;;;;11.90;9.13;;;22.50;99.90;;;;;;4960388;28;20038;-83
2023/09/26 13:37:17;;;;;;;10.00;9.00;;;22.60;99.90;;;;;;4971800;28;20045;-83
2023/09/26 13:39:42;;;;;;;10.18;9.27;;;22.70;99.90;;;;;;4973522;28;20041;-84
2023/09/26 13:42:08;;;;;;;10.30;9.23;;;22.80;99.90;;;;;;4960712;28;20051;-83
2023/09/26 13:44:34;;;;;;;10.05;8.73;;;22.70;99.90;;;;;;4976506;28;20084;-84
2023/09/26 13:47:00;;;;;;;10.20;8.77;;;22.80;99.90;;;;;;4972604;28;20505;-83
2023/09/26 13:49:25;;;;;;;9.90;8.88;;;22.70;99.90;;;;;;4968133;28;20038;-83
2023/09/26 13:51:53;;;;;;;10.75;9.63;;;22.50;99.90;;;;;;4960404;28;20049;-84
2023/09/26 13:54:19;;;;;;;10.45;9.40;;;22.30;99.90;;;;;;4976380;28;20515;-84
2023/09/26 13:56:45;;;;;;;10.70;9.68;;;22.20;99.90;;;;;;4955037;28;20134;-84
2023/09/26 13:59:11;;;;;;;9.77;8.77;;;22.10;99.90;;;;;;4952325;28;20125;-83
2023/09/26 14:01:36;;;;;;;10.02;7.95;;;22.00;99.90;;;;;;4960052;28;20046;-84
2023/09/26 14:04:02;;;;;;;9.32;8.38;;;21.90;99.90;;;;;;4960079;28;20488;-83
2023/09/26 14:06:28;;;;;;;9.60;7.88;;;21.80;99.90;;;;;;4971130;28;20043;-83
2023/09/26 14:08:53;;;;;;;9.20;8.05;;;21.80;99.90;;;;;;4951668;28;20042;-83
2023/09/26 14:11:19;;;;;;;9.88;7.60;;;21.80;99.90;;;;;;4975912;28;20856;-84
2023/09/26 14:13:45;;;;;;;10.10;7.47;;;21.70;99.90;;;;;;4959760;28;20085;-83
2023/09/26 14:16:11;;;;;;;9.20;8.05;;;21.60;99.90;;;;;;4939572;29;20067;-85
2023/09/26 14:18:37;;;;;;;11.35;7.40;;;21.60;99.90;;;;;;4939252;28;20511;-85
2023/09/26 14:21:07;;;;;;;8.70;7.80;;;21.50;99.90;;;;;;4949163;28;20051;-85
2023/09/26 14:23:35;;;;;;;9.98;8.50;;;21.40;99.90;;;;;;4955188;28;20137;-85
2023/09/26 14:26:01;;;;;;;9.63;8.10;;;21.40;99.90;;;;;;4942528;28;20050;-85
2023/09/26 14:28:27;;;;;;;9.23;8.32;;;21.30;99.90;;;;;;4959342;28;20101;-85
2023/09/26 14:30:53;;;;;;;11.27;7.85;;;21.20;99.90;;;;;;4950666;28;20094;-85
2023/09/26 14:33:19;;;;;;;8.73;7.80;;;21.20;99.90;;;;;;4952829;28;20486;-85
2023/09/26 14:35:49;;;;;;;9.07;8.10;;;21.20;99.90;;;;;;4937459;28;20031;-84
2023/09/26 14:38:16;;;;;;;9.60;8.43;;;21.10;99.90;;;;;;4944112;28;20039;-85
2023/09/26 14:40:41;;;;;;;10.10;8.43;;;21.10;99.90;;;;;;4947548;29;20560;-85